createdAt,value
2018-08-17T00:01:58.302Z,34.31
2018-08-17T00:04:25.984Z,33.56
2018-08-17T00:06:53.672Z,33.70
2018-08-17T00:09:21.259Z,33.60
2018-08-17T00:11:48.830Z,33.62
2018-08-17T00:14:16.493Z,34.05
2018-08-17T00:16:44.151Z,34.14
2018-08-17T00:19:11.719Z,33.85
2018-08-17T00:21:39.396Z,34.26
2018-08-17T00:24:07.022Z,34.11
2018-08-17T00:26:34.651Z,34.35
2018-08-17T00:29:02.300Z,34.04
2018-08-17T00:31:29.986Z,34.09
2018-08-17T00:33:57.611Z,34.02
2018-08-17T00:36:25.323Z,34.24
2018-08-17T00:38:52.892Z,34.26
2018-08-17T00:41:20.475Z,34.12
2018-08-17T00:43:48.121Z,34.41
2018-08-17T00:46:15.827Z,34.10
2018-08-17T00:48:43.447Z,34.35
2018-08-17T00:51:11.119Z,33.97
2018-08-17T00:53:38.776Z,34.17
2018-08-17T00:56:06.653Z,34.02
2018-08-17T00:58:34.460Z,34.08
2018-08-17T01:01:02.117Z,34.61
2018-08-17T01:03:29.998Z,34.42
2018-08-17T01:05:57.620Z,34.31
2018-08-17T01:08:25.387Z,34.75
2018-08-17T01:10:53.058Z,34.82
2018-08-17T01:13:20.790Z,34.46
2018-08-17T01:15:48.407Z,34.85
2018-08-17T01:18:16.063Z,34.68
2018-08-17T01:20:43.723Z,35.08
2018-08-17T01:23:11.406Z,35.01
2018-08-17T01:25:38.998Z,35.06
2018-08-17T01:28:07.558Z,35.53
2018-08-17T01:30:35.147Z,35.47
2018-08-17T01:33:02.811Z,35.40
2018-08-17T01:35:30.474Z,36.22
2018-08-17T01:37:58.090Z,35.79
2018-08-17T01:40:25.667Z,36.01
2018-08-17T01:42:53.302Z,36.32
2018-08-17T01:45:20.954Z,36.44
2018-08-17T01:47:48.528Z,36.67
2018-08-17T01:50:16.162Z,36.09
2018-08-17T01:52:43.736Z,36.54
2018-08-17T01:55:11.750Z,36.42
2018-08-17T01:57:39.514Z,36.74
2018-08-17T02:00:09.179Z,36.38
2018-08-17T02:02:37.592Z,36.53
2018-08-17T02:05:05.370Z,36.42
2018-08-17T02:07:33.034Z,36.98
2018-08-17T02:10:00.615Z,36.52
2018-08-17T02:12:28.309Z,37.20
2018-08-17T02:14:55.955Z,37.17
2018-08-17T02:17:23.566Z,37.22
2018-08-17T02:19:51.190Z,38.08
2018-08-17T02:22:18.783Z,38.01
2018-08-17T02:24:46.382Z,38.20
2018-08-17T02:27:14.029Z,38.50
2018-08-17T02:29:41.678Z,37.91
2018-08-17T02:32:09.410Z,38.26
2018-08-17T02:34:37.216Z,37.91
2018-08-17T02:37:05.051Z,38.04
2018-08-17T02:39:32.722Z,37.83
2018-08-17T02:42:00.403Z,38.29
2018-08-17T02:44:28.021Z,38.67
2018-08-17T02:46:55.639Z,38.78
2018-08-17T02:49:23.630Z,38.66
2018-08-17T02:51:51.354Z,39.05
2018-08-17T02:54:18.959Z,38.56
2018-08-17T02:56:46.634Z,38.97
2018-08-17T02:59:14.334Z,39.16
2018-08-17T03:01:41.984Z,39.42
2018-08-17T03:04:09.632Z,39.36
2018-08-17T03:06:37.304Z,39.40
2018-08-17T03:09:07.016Z,39.76
2018-08-17T03:11:34.747Z,39.71
2018-08-17T03:14:02.750Z,39.13
2018-08-17T03:16:30.404Z,39.67
2018-08-17T03:18:58.034Z,39.04
2018-08-17T03:21:25.628Z,39.27
2018-08-17T03:23:53.226Z,38.96
2018-08-17T03:26:20.884Z,39.18
2018-08-17T03:28:48.463Z,39.90
2018-08-17T03:31:16.118Z,39.83
2018-08-17T03:33:43.743Z,40.02
2018-08-17T03:36:11.415Z,39.71
2018-08-17T03:38:38.990Z,39.59
2018-08-17T03:41:06.710Z,39.89
2018-08-17T03:43:34.307Z,40.26
2018-08-17T03:46:01.907Z,40.92
2018-08-17T03:48:29.774Z,40.99
2018-08-17T03:50:57.351Z,40.91
2018-08-17T03:53:25.035Z,40.74
2018-08-17T03:55:52.656Z,40.56
2018-08-17T03:58:20.251Z,40.94
2018-08-17T04:00:47.893Z,41.08
2018-08-17T04:03:15.526Z,40.99
2018-08-17T04:05:43.136Z,41.00
2018-08-17T04:08:10.830Z,41.54
2018-08-17T04:10:38.537Z,41.80
2018-08-17T04:13:06.193Z,41.50
2018-08-17T04:15:34.019Z,40.95
2018-08-17T04:18:01.520Z,41.36
2018-08-17T04:20:29.201Z,42.05
2018-08-17T04:22:56.806Z,41.31
2018-08-17T04:25:24.479Z,41.41
2018-08-17T04:27:52.073Z,41.61
2018-08-17T04:30:19.722Z,41.92
2018-08-17T04:32:47.333Z,41.96
2018-08-17T04:35:14.924Z,42.39
2018-08-17T04:37:42.619Z,42.37
2018-08-17T04:40:10.227Z,41.83
2018-08-17T04:42:37.931Z,42.23
2018-08-17T04:45:06.070Z,42.11
2018-08-17T04:47:33.709Z,42.37
2018-08-17T04:50:01.375Z,42.48
2018-08-17T04:52:29.204Z,42.20
2018-08-17T04:54:56.873Z,42.60
2018-08-17T04:57:24.515Z,42.71
2018-08-17T04:59:52.096Z,42.24
2018-08-17T05:02:19.715Z,42.60
2018-08-17T05:04:47.304Z,42.53
2018-08-17T05:07:14.951Z,42.86
2018-08-17T05:09:42.592Z,43.04
2018-08-17T05:12:10.301Z,43.13
2018-08-17T05:14:38.151Z,43.26
2018-08-17T05:17:05.828Z,43.48
2018-08-17T05:19:33.522Z,44.14
2018-08-17T05:22:01.112Z,44.07
2018-08-17T05:24:28.719Z,43.98
2018-08-17T05:26:56.338Z,43.47
2018-08-17T05:29:24.084Z,43.78
2018-08-17T05:31:51.728Z,42.86
2018-08-17T05:34:19.437Z,42.79
2018-08-17T05:36:47.090Z,42.32
2018-08-17T05:39:14.850Z,42.35
2018-08-17T05:41:42.474Z,40.94
2018-08-17T05:44:10.078Z,40.58
2018-08-17T05:46:37.744Z,40.99
2018-08-17T05:49:05.511Z,40.67
2018-08-17T05:51:33.202Z,40.38
2018-08-17T05:54:00.846Z,40.17
2018-08-17T05:56:28.455Z,38.94
2018-08-17T05:58:56.068Z,38.79
2018-08-17T06:01:23.784Z,38.52
2018-08-17T06:03:51.471Z,38.52
2018-08-17T06:06:19.148Z,38.39
2018-08-17T06:08:46.830Z,37.58
2018-08-17T06:11:14.627Z,37.82
2018-08-17T06:13:42.172Z,37.43
2018-08-17T06:16:10.100Z,36.59
2018-08-17T06:18:37.714Z,36.41
2018-08-17T06:21:05.337Z,36.18
2018-08-17T06:23:33.030Z,35.74
2018-08-17T06:26:00.663Z,35.61
2018-08-17T06:28:28.319Z,35.02
2018-08-17T06:30:56.040Z,34.89
2018-08-17T06:33:23.695Z,34.60
2018-08-17T06:35:51.281Z,34.10
2018-08-17T06:38:18.996Z,33.05
2018-08-17T06:40:46.660Z,32.79
2018-08-17T06:43:14.305Z,33.17
2018-08-17T06:45:42.057Z,32.79
2018-08-17T06:48:09.698Z,32.58
2018-08-17T06:50:37.410Z,32.02
2018-08-17T06:53:05.439Z,31.75
2018-08-17T06:55:33.088Z,31.65
2018-08-17T06:58:00.772Z,31.67
2018-08-17T07:00:28.428Z,30.79
2018-08-17T07:02:56.070Z,31.03
2018-08-17T07:05:23.718Z,30.59
2018-08-17T07:07:51.448Z,31.07
2018-08-17T07:10:19.083Z,31.10
2018-08-17T07:12:46.686Z,31.00
2018-08-17T07:15:14.381Z,30.46
2018-08-17T07:17:42.135Z,30.22
2018-08-17T07:20:12.096Z,30.15
2018-08-17T07:22:40.297Z,30.10
2018-08-17T07:25:08.440Z,30.00
2018-08-17T07:27:36.091Z,30.30
2018-08-17T07:30:04.775Z,29.43
2018-08-17T07:32:32.408Z,29.94
2018-08-17T07:35:00.027Z,29.66
2018-08-17T07:37:27.701Z,29.11
2018-08-17T07:39:55.359Z,28.52
2018-08-17T07:42:22.956Z,27.90
2018-08-17T07:44:50.601Z,27.78
2018-08-17T07:47:18.316Z,27.69
2018-08-17T07:49:45.971Z,27.39
2018-08-17T07:52:13.645Z,26.59
2018-08-17T07:54:41.306Z,26.02
2018-08-17T07:57:08.921Z,25.73
2018-08-17T07:59:36.600Z,25.62
2018-08-17T08:02:04.300Z,25.89
2018-08-17T08:04:31.967Z,25.46
2018-08-17T08:06:59.643Z,25.40
2018-08-17T08:09:27.263Z,24.96
2018-08-17T08:11:54.862Z,24.80
2018-08-17T08:14:22.519Z,24.31
2018-08-17T08:16:50.127Z,23.43
2018-08-17T08:19:17.751Z,23.42
2018-08-17T08:21:48.290Z,23.40
2018-08-17T08:24:16.398Z,22.87
2018-08-17T08:26:44.262Z,22.25
2018-08-17T08:29:11.891Z,21.78
2018-08-17T08:31:39.597Z,21.58
2018-08-17T08:34:07.238Z,20.18
2018-08-17T08:36:34.870Z,19.61
2018-08-17T08:39:02.641Z,19.39
2018-08-17T08:41:30.333Z,18.84
2018-08-17T08:43:57.996Z,19.03
2018-08-17T08:46:25.631Z,18.94
2018-08-17T08:48:53.343Z,18.51
2018-08-17T08:51:21.047Z,18.13
2018-08-17T08:53:48.662Z,17.57
2018-08-17T08:56:16.290Z,17.23
2018-08-17T08:58:43.990Z,17.40
2018-08-17T09:01:11.743Z,17.50
2018-08-17T09:03:39.370Z,17.44
2018-08-17T09:06:07.029Z,16.66
2018-08-17T09:08:34.669Z,16.52
2018-08-17T09:11:02.277Z,16.92
2018-08-17T09:13:29.888Z,16.38
2018-08-17T09:15:57.536Z,16.54
2018-08-17T09:18:25.231Z,16.25
2018-08-17T09:20:52.880Z,16.99
2018-08-17T09:23:20.561Z,16.71
2018-08-17T09:25:48.171Z,15.55
2018-08-17T09:28:15.806Z,16.23
2018-08-17T09:30:43.435Z,16.21
2018-08-17T09:33:11.173Z,15.84
2018-08-17T09:35:38.815Z,16.16
2018-08-17T09:38:06.511Z,15.55
2018-08-17T09:40:34.217Z,16.23
2018-08-17T09:43:01.883Z,15.03
2018-08-17T09:45:29.594Z,15.35
2018-08-17T09:47:57.237Z,15.11
2018-08-17T09:50:24.990Z,16.24
2018-08-17T09:52:52.640Z,16.91
2018-08-17T09:55:20.284Z,15.80
2018-08-17T09:57:47.901Z,15.46
2018-08-17T10:00:15.565Z,15.47
2018-08-17T10:02:48.821Z,16.08
2018-08-17T10:05:22.149Z,17.00
2018-08-17T10:07:55.275Z,17.80
2018-08-17T10:10:24.232Z,17.30
2018-08-17T10:12:52.196Z,15.91
2018-08-17T10:15:21.208Z,14.94
2018-08-17T10:17:48.822Z,15.22
2018-08-17T10:20:21.877Z,15.04
2018-08-17T10:22:49.484Z,14.72
2018-08-17T10:25:24.272Z,15.81
2018-08-17T10:27:53.208Z,15.02
2018-08-17T10:30:21.599Z,16.23
2018-08-17T10:32:54.516Z,16.40
2018-08-17T10:35:24.582Z,17.22
2018-08-17T10:37:54.410Z,17.97
2018-08-17T10:40:22.210Z,17.21
2018-08-17T10:42:49.815Z,15.87
2018-08-17T10:45:18.117Z,16.09
2018-08-17T10:47:45.722Z,15.44
2018-08-17T10:50:17.460Z,14.79
2018-08-17T10:52:45.262Z,14.15
2018-08-17T10:55:13.081Z,13.66
2018-08-17T10:57:40.850Z,13.66
2018-08-17T11:00:13.580Z,13.01
2018-08-17T11:02:41.776Z,12.83
2018-08-17T11:05:09.462Z,12.51
2018-08-17T11:07:38.214Z,12.25
2018-08-17T11:10:07.752Z,11.95
2018-08-17T11:12:35.428Z,11.75
2018-08-17T11:15:03.231Z,11.55
2018-08-17T11:17:30.884Z,10.99
2018-08-17T11:19:58.485Z,11.20
2018-08-17T11:22:26.084Z,10.37
2018-08-17T11:24:53.715Z,10.64
2018-08-17T11:27:21.329Z,10.31
2018-08-17T11:29:48.947Z,10.50
2018-08-17T11:32:16.581Z,10.33
2018-08-17T11:34:51.968Z,10.23
2018-08-17T11:37:20.216Z,9.64
2018-08-17T11:39:52.629Z,9.61
2018-08-17T11:42:20.311Z,9.56
2018-08-17T11:44:47.932Z,9.47
2018-08-17T11:47:15.560Z,9.80
2018-08-17T11:49:43.258Z,9.85
2018-08-17T11:52:10.885Z,9.86
2018-08-17T11:54:38.515Z,9.28
2018-08-17T11:57:06.255Z,9.66
2018-08-17T11:59:33.912Z,9.48
2018-08-17T12:02:01.604Z,9.45
2018-08-17T12:04:29.199Z,9.63
2018-08-17T12:06:56.812Z,9.83
2018-08-17T12:09:24.475Z,9.71
2018-08-17T12:11:53.026Z,9.30
2018-08-17T12:14:20.662Z,9.23
2018-08-17T12:16:48.271Z,8.85
2018-08-17T12:19:15.899Z,9.83
2018-08-17T12:21:43.541Z,9.18
2018-08-17T12:24:11.270Z,9.69
2018-08-17T12:26:44.509Z,9.58
2018-08-17T12:29:12.163Z,8.82
2018-08-17T12:31:39.871Z,9.25
2018-08-17T12:34:07.545Z,8.83
2018-08-17T12:36:35.358Z,8.58
2018-08-17T12:39:03.215Z,9.39
2018-08-17T12:41:31.712Z,9.64
2018-08-17T12:43:59.335Z,9.68
2018-08-17T12:46:27.016Z,9.66
2018-08-17T12:48:54.700Z,10.15
2018-08-17T12:51:22.366Z,10.04
2018-08-17T12:53:49.979Z,10.05
2018-08-17T12:56:17.681Z,10.73
2018-08-17T12:58:45.342Z,12.08
2018-08-17T13:01:12.988Z,11.44
2018-08-17T13:03:40.664Z,9.79
2018-08-17T13:06:08.300Z,9.96
2018-08-17T13:08:35.945Z,10.38
2018-08-17T13:11:03.691Z,9.87
2018-08-17T13:13:31.359Z,9.29
2018-08-17T13:16:03.903Z,9.35
2018-08-17T13:18:33.554Z,9.79
2018-08-17T13:21:01.344Z,9.18
2018-08-17T13:23:29.053Z,9.54
2018-08-17T13:25:56.672Z,10.03
2018-08-17T13:28:24.298Z,9.48
2018-08-17T13:30:51.930Z,8.82
2018-08-17T13:33:19.568Z,9.03
2018-08-17T13:35:47.208Z,8.72
2018-08-17T13:38:14.902Z,9.52
2018-08-17T13:40:42.590Z,9.44
2018-08-17T13:43:10.252Z,9.11
2018-08-17T13:45:38.987Z,8.24
2018-08-17T13:48:06.859Z,8.60
2018-08-17T13:50:34.534Z,8.54
2018-08-17T13:53:02.279Z,8.36
2018-08-17T13:55:30.791Z,8.37
2018-08-17T13:57:58.608Z,8.23
2018-08-17T14:00:26.283Z,8.25
2018-08-17T14:02:54.096Z,8.42
2018-08-17T14:05:21.856Z,8.33
2018-08-17T14:07:49.617Z,8.25
2018-08-17T14:10:17.291Z,8.08
2018-08-17T14:12:45.201Z,8.28
2018-08-17T14:15:13.008Z,8.55
2018-08-17T14:17:40.714Z,8.92
2018-08-17T14:20:10.732Z,8.99
2018-08-17T14:22:38.423Z,10.66
2018-08-17T14:25:06.542Z,10.34
2018-08-17T14:27:34.472Z,10.49
2018-08-17T14:30:02.161Z,10.44
2018-08-17T14:32:29.768Z,11.15
2018-08-17T14:34:58.001Z,12.71
2018-08-17T14:37:25.629Z,12.59
2018-08-17T14:39:53.257Z,11.92
2018-08-17T14:42:20.943Z,11.10
2018-08-17T14:44:48.598Z,10.24
2018-08-17T14:47:16.534Z,9.97
2018-08-17T14:49:44.167Z,9.21
2018-08-17T14:52:11.941Z,9.30
2018-08-17T14:54:39.582Z,9.59
2018-08-17T14:57:07.277Z,9.03
2018-08-17T14:59:34.992Z,9.76
2018-08-17T15:02:02.691Z,9.41
2018-08-17T15:04:30.276Z,9.42
2018-08-17T15:06:57.893Z,9.64
2018-08-17T15:09:25.552Z,9.65
2018-08-17T15:11:53.317Z,9.86
2018-08-17T15:14:21.066Z,9.57
2018-08-17T15:16:48.686Z,9.77
2018-08-17T15:19:16.350Z,9.63
2018-08-17T15:21:44.038Z,9.81
2018-08-17T15:24:11.719Z,10.54
2018-08-17T15:26:39.719Z,10.60
2018-08-17T15:29:07.332Z,11.05
2018-08-17T15:31:34.972Z,11.24
2018-08-17T15:34:02.772Z,11.42
2018-08-17T15:36:30.518Z,11.57
2018-08-17T15:38:58.228Z,11.87
2018-08-17T15:41:25.999Z,12.28
2018-08-17T15:43:53.567Z,12.46
2018-08-17T15:46:21.274Z,13.29
2018-08-17T15:48:52.331Z,13.06
2018-08-17T15:51:20.033Z,14.14
2018-08-17T15:53:47.755Z,14.02
2018-08-17T15:56:15.485Z,14.56
2018-08-17T15:58:43.268Z,15.50
2018-08-17T16:01:11.340Z,15.69
2018-08-17T16:03:38.916Z,16.52
2018-08-17T16:06:06.667Z,16.52
2018-08-17T16:08:34.315Z,17.53
2018-08-17T16:11:01.960Z,18.08
2018-08-17T16:13:29.647Z,17.91
2018-08-17T16:15:57.369Z,18.72
2018-08-17T16:18:24.999Z,18.55
2018-08-17T16:20:52.725Z,18.95
2018-08-17T16:23:20.411Z,19.16
2018-08-17T16:25:48.042Z,19.68
2018-08-17T16:28:15.746Z,19.89
2018-08-17T16:30:43.460Z,20.51
2018-08-17T16:33:11.103Z,20.27
2018-08-17T16:35:38.889Z,20.45
2018-08-17T16:38:06.762Z,20.96
2018-08-17T16:40:39.875Z,20.82
2018-08-17T16:43:07.495Z,21.33
2018-08-17T16:45:35.176Z,21.48
2018-08-17T16:48:02.807Z,21.39
2018-08-17T16:50:30.378Z,21.87
2018-08-17T16:52:58.056Z,21.27
2018-08-17T16:55:25.705Z,22.00
2018-08-17T16:57:53.359Z,21.61
2018-08-17T17:00:21.129Z,22.03
2018-08-17T17:02:48.762Z,22.37
2018-08-17T17:05:16.328Z,21.97
2018-08-17T17:07:43.986Z,22.77
2018-08-17T17:10:11.771Z,22.90
2018-08-17T17:12:39.735Z,22.78
2018-08-17T17:15:17.327Z,22.92
2018-08-17T17:17:53.652Z,23.40
2018-08-17T17:20:21.419Z,23.66
2018-08-17T17:22:49.023Z,23.56
2018-08-17T17:25:17.594Z,23.84
2018-08-17T17:27:45.660Z,23.97
2018-08-17T17:30:13.304Z,24.59
2018-08-17T17:32:40.989Z,24.48
2018-08-17T17:35:08.803Z,24.93
2018-08-17T17:37:36.408Z,24.56
2018-08-17T17:40:04.431Z,24.91
2018-08-17T17:42:32.142Z,25.19
2018-08-17T17:44:59.795Z,25.38
2018-08-17T17:47:27.432Z,25.71
2018-08-17T17:49:55.080Z,25.36
2018-08-17T17:52:22.753Z,26.07
2018-08-17T17:54:50.507Z,25.87
2018-08-17T17:57:18.162Z,26.09
2018-08-17T17:59:55.523Z,26.79
2018-08-17T18:02:23.256Z,26.94
2018-08-17T18:04:50.960Z,26.49
2018-08-17T18:07:18.687Z,26.97
2018-08-17T18:09:46.386Z,27.46
2018-08-17T18:12:14.027Z,27.76
2018-08-17T18:14:41.628Z,27.74
2018-08-17T18:17:09.631Z,27.55
2018-08-17T18:19:37.297Z,28.02
2018-08-17T18:22:06.411Z,28.06
2018-08-17T18:24:34.049Z,27.77
2018-08-17T18:27:01.748Z,28.17
2018-08-17T18:29:29.400Z,28.60
2018-08-17T18:31:57.091Z,28.38
2018-08-17T18:34:24.741Z,28.55
2018-08-17T18:36:52.377Z,29.02
2018-08-17T18:39:20.012Z,29.10
2018-08-17T18:41:47.617Z,29.43
2018-08-17T18:44:15.278Z,29.63
2018-08-17T18:46:43.107Z,29.81
2018-08-17T18:49:10.691Z,30.10
2018-08-17T18:51:38.376Z,29.56
2018-08-17T18:54:06.040Z,30.17
2018-08-17T18:56:33.716Z,30.38
2018-08-17T18:59:01.395Z,30.17
2018-08-17T19:01:29.156Z,30.66
2018-08-17T19:03:56.780Z,30.90
2018-08-17T19:06:24.440Z,31.15
2018-08-17T19:08:52.094Z,31.25
2018-08-17T19:11:19.739Z,31.60
2018-08-17T19:13:47.344Z,31.25
2018-08-17T19:16:15.144Z,31.01
2018-08-17T19:18:42.780Z,31.29
2018-08-17T19:21:11.877Z,31.34
2018-08-17T19:23:39.571Z,31.90
2018-08-17T19:26:08.239Z,31.55
2018-08-17T19:28:35.891Z,31.82
2018-08-17T19:31:03.646Z,31.76
2018-08-17T19:33:31.357Z,32.29
2018-08-17T19:35:59.217Z,31.90
2018-08-17T19:38:26.938Z,32.55
2018-08-17T19:40:54.592Z,32.58
2018-08-17T19:43:22.202Z,32.63
2018-08-17T19:45:49.963Z,32.90
2018-08-17T19:48:17.582Z,33.03
2018-08-17T19:50:45.240Z,32.79
2018-08-17T19:53:12.901Z,32.74
2018-08-17T19:55:40.573Z,33.17
2018-08-17T19:58:08.241Z,32.93
2018-08-17T20:00:35.915Z,33.73
2018-08-17T20:03:03.552Z,33.42
2018-08-17T20:05:31.231Z,33.81
2018-08-17T20:07:58.920Z,33.84
2018-08-17T20:10:26.626Z,34.17
2018-08-17T20:12:54.238Z,34.91
2018-08-17T20:15:21.923Z,35.42
2018-08-17T20:17:50.736Z,36.03
2018-08-17T20:20:18.813Z,36.87
2018-08-17T20:22:46.445Z,39.54
2018-08-17T20:25:15.500Z,41.28
2018-08-17T20:27:43.674Z,42.69
2018-08-17T20:30:16.779Z,44.99
2018-08-17T20:32:44.903Z,46.67
2018-08-17T20:35:12.626Z,47.66
2018-08-17T20:37:43.491Z,47.62
2018-08-17T20:40:11.177Z,47.96
2018-08-17T20:42:38.796Z,48.56
2018-08-17T20:45:07.420Z,49.06
2018-08-17T20:47:36.411Z,49.30
2018-08-17T20:50:07.318Z,49.31
2018-08-17T20:52:37.130Z,49.91
2018-08-17T20:55:04.846Z,49.48
2018-08-17T20:57:32.455Z,49.95
2018-08-17T21:00:00.074Z,49.93
2018-08-17T21:02:27.720Z,50.05
2018-08-17T21:04:55.433Z,51.24
2018-08-17T21:07:23.048Z,51.34
2018-08-17T21:09:50.665Z,50.54
2018-08-17T21:12:18.324Z,50.62
2018-08-17T21:14:45.931Z,50.69
2018-08-17T21:17:13.551Z,49.26
2018-08-17T21:19:41.223Z,51.17
2018-08-17T21:22:10.000Z,52.34
2018-08-17T21:24:38.728Z,54.76
2018-08-17T21:27:06.439Z,56.45
2018-08-17T21:29:34.187Z,56.60
2018-08-17T21:32:01.889Z,54.61
2018-08-17T21:34:29.668Z,55.14
2018-08-17T21:36:57.313Z,57.72
2018-08-17T21:39:25.032Z,56.59
2018-08-17T21:41:52.745Z,56.87
2018-08-17T21:44:20.979Z,58.02
2018-08-17T21:46:54.854Z,59.65
2018-08-17T21:49:23.702Z,60.42
2018-08-17T21:51:56.559Z,60.46
2018-08-17T21:54:24.399Z,59.54
2018-08-17T21:56:52.320Z,59.10
2018-08-17T21:59:19.974Z,59.23
2018-08-17T22:01:47.622Z,58.61
2018-08-17T22:04:15.243Z,58.41
2018-08-17T22:06:42.912Z,58.48
2018-08-17T22:09:11.068Z,58.80
2018-08-17T22:11:38.723Z,58.46
2018-08-17T22:14:06.612Z,57.97
2018-08-17T22:16:34.381Z,57.51
2018-08-17T22:19:02.104Z,57.55
2018-08-17T22:21:30.832Z,58.10
2018-08-17T22:23:58.493Z,57.87
2018-08-17T22:26:26.200Z,57.76
2018-08-17T22:28:54.227Z,57.85
2018-08-17T22:31:33.864Z,56.94
2018-08-17T22:34:01.565Z,56.78
2018-08-17T22:36:30.912Z,56.76
2018-08-17T22:38:58.608Z,57.12
2018-08-17T22:41:26.311Z,57.12
2018-08-17T22:43:53.943Z,57.18
2018-08-17T22:46:21.572Z,56.70
2018-08-17T22:48:49.294Z,57.38
2018-08-17T22:51:17.247Z,57.20
2018-08-17T22:53:45.005Z,57.20
2018-08-17T22:56:12.648Z,56.93
2018-08-17T22:58:45.872Z,57.91
2018-08-17T23:01:13.560Z,57.51
2018-08-17T23:03:53.639Z,57.62
2018-08-17T23:06:22.133Z,58.15
2018-08-17T23:08:49.823Z,58.13
2018-08-17T23:11:28.331Z,58.36
2018-08-17T23:13:57.753Z,58.13
2018-08-17T23:16:25.425Z,58.17
2018-08-17T23:18:53.362Z,58.28
2018-08-17T23:21:21.048Z,58.67
2018-08-17T23:23:48.734Z,58.86
2018-08-17T23:26:16.396Z,58.55
2018-08-17T23:28:44.096Z,58.74
2018-08-17T23:31:11.761Z,58.27
2018-08-17T23:33:39.475Z,59.14
2018-08-17T23:36:07.081Z,58.43
2018-08-17T23:38:34.894Z,59.12
2018-08-17T23:41:02.654Z,59.52
2018-08-17T23:43:30.320Z,59.65
2018-08-17T23:45:59.071Z,59.65
2018-08-17T23:48:26.699Z,59.56
2018-08-17T23:50:54.842Z,59.80
2018-08-17T23:53:22.628Z,60.36
2018-08-17T23:55:50.403Z,60.69
2018-08-17T23:58:18.208Z,60.70
